sensor_id;sensor_type;location;lat;lon;timestamp;P1;durP1;ratioP1;P2;durP2;ratioP2
21416;SDS011;10869;52.238;10.716;2023-05-19T03:02:43;12.53;;;3.30;;
21416;SDS011;10869;52.238;10.716;2023-05-19T03:05:09;13.27;;;4.30;;
21416;SDS011;10869;52.238;10.716;2023-05-19T03:07:36;12.00;;;3.57;;
21416;SDS011;10869;52.238;10.716;2023-05-19T03:13:54;16.57;;;3.93;;
21416;SDS011;10869;52.238;10.716;2023-05-19T03:16:31;11.43;;;3.33;;
21416;SDS011;10869;52.238;10.716;2023-05-19T03:19:11;10.50;;;3.33;;
21416;SDS011;10869;52.238;10.716;2023-05-19T03:21:46;10.23;;;3.67;;
21416;SDS011;10869;52.238;10.716;2023-05-19T03:24:20;8.93;;;3.40;;
21416;SDS011;10869;52.238;10.716;2023-05-19T03:27:13;14.07;;;3.90;;
21416;SDS011;10869;52.238;10.716;2023-05-19T03:29:49;13.80;;;4.00;;
21416;SDS011;10869;52.238;10.716;2023-05-19T03:32:39;16.67;;;4.53;;
21416;SDS011;10869;52.238;10.716;2023-05-19T03:35:12;9.70;;;3.90;;
21416;SDS011;10869;52.238;10.716;2023-05-19T03:38:23;11.67;;;3.70;;
21416;SDS011;10869;52.238;10.716;2023-05-19T03:44:35;11.63;;;4.20;;
21416;SDS011;10869;52.238;10.716;2023-05-19T03:47:44;11.03;;;4.37;;
21416;SDS011;10869;52.238;10.716;2023-05-19T03:50:19;10.63;;;4.47;;
21416;SDS011;10869;52.238;10.716;2023-05-19T03:52:50;13.43;;;4.20;;
21416;SDS011;10869;52.238;10.716;2023-05-19T03:55:46;13.03;;;3.90;;
21416;SDS011;10869;52.238;10.716;2023-05-19T03:58:42;9.90;;;3.87;;
21416;SDS011;10869;52.238;10.716;2023-05-19T04:01:39;11.47;;;4.03;;
21416;SDS011;10869;52.238;10.716;2023-05-19T04:07:58;11.20;;;4.57;;
21416;SDS011;10869;52.238;10.716;2023-05-19T04:14:12;14.73;;;4.47;;
21416;SDS011;10869;52.238;10.716;2023-05-19T04:17:14;11.20;;;4.70;;
21416;SDS011;10869;52.238;10.716;2023-05-19T04:20:06;12.77;;;4.53;;
21416;SDS011;10869;52.238;10.716;2023-05-19T04:22:59;10.77;;;3.80;;
21416;SDS011;10869;52.238;10.716;2023-05-19T04:26:04;13.87;;;4.90;;
21416;SDS011;10869;52.238;10.716;2023-05-19T04:32:51;13.60;;;3.83;;
21416;SDS011;10869;52.238;10.716;2023-05-19T04:43:10;11.93;;;4.10;;
21416;SDS011;10869;52.238;10.716;2023-05-19T04:45:51;9.73;;;3.90;;
21416;SDS011;10869;52.238;10.716;2023-05-19T05:01:36;11.63;;;3.87;;
21416;SDS011;10869;52.238;10.716;2023-05-19T05:04:05;11.07;;;3.37;;
21416;SDS011;10869;52.238;10.716;2023-05-19T05:06:35;13.73;;;3.60;;
21416;SDS011;10869;52.238;10.716;2023-05-19T05:12:44;12.87;;;3.97;;
21416;SDS011;10869;52.238;10.716;2023-05-19T05:15:14;8.70;;;3.37;;
21416;SDS011;10869;52.238;10.716;2023-05-19T05:20:21;11.80;;;3.23;;
21416;SDS011;10869;52.238;10.716;2023-05-19T05:22:49;13.03;;;3.57;;
21416;SDS011;10869;52.238;10.716;2023-05-19T05:25:17;13.83;;;4.10;;
21416;SDS011;10869;52.238;10.716;2023-05-19T05:27:45;8.13;;;3.10;;
21416;SDS011;10869;52.238;10.716;2023-05-19T05:30:11;9.60;;;4.10;;
21416;SDS011;10869;52.238;10.716;2023-05-19T05:32:40;11.07;;;3.67;;
21416;SDS011;10869;52.238;10.716;2023-05-19T05:35:10;15.10;;;3.77;;
21416;SDS011;10869;52.238;10.716;2023-05-19T05:37:37;10.77;;;3.27;;
21416;SDS011;10869;52.238;10.716;2023-05-19T05:40:04;13.00;;;3.43;;
21416;SDS011;10869;52.238;10.716;2023-05-19T05:42:34;11.67;;;3.87;;
21416;SDS011;10869;52.238;10.716;2023-05-19T05:45:05;16.37;;;3.60;;
21416;SDS011;10869;52.238;10.716;2023-05-19T05:47:32;13.63;;;3.70;;
21416;SDS011;10869;52.238;10.716;2023-05-19T05:50:03;12.90;;;3.33;;
21416;SDS011;10869;52.238;10.716;2023-05-19T05:52:55;9.17;;;3.07;;
21416;SDS011;10869;52.238;10.716;2023-05-19T05:55:26;11.13;;;3.33;;
21416;SDS011;10869;52.238;10.716;2023-05-19T05:58:18;12.33;;;3.27;;
21416;SDS011;10869;52.238;10.716;2023-05-19T06:17:04;8.17;;;2.57;;
21416;SDS011;10869;52.238;10.716;2023-05-19T06:22:09;12.43;;;2.90;;
21416;SDS011;10869;52.238;10.716;2023-05-19T06:24:58;9.57;;;3.07;;
21416;SDS011;10869;52.238;10.716;2023-05-19T06:30:47;8.27;;;2.87;;
21416;SDS011;10869;52.238;10.716;2023-05-19T06:33:33;10.63;;;2.97;;
21416;SDS011;10869;52.238;10.716;2023-05-19T06:36:01;7.70;;;2.33;;
21416;SDS011;10869;52.238;10.716;2023-05-19T06:38:49;10.37;;;2.80;;
21416;SDS011;10869;52.238;10.716;2023-05-19T06:41:15;14.47;;;2.77;;
21416;SDS011;10869;52.238;10.716;2023-05-19T06:43:43;8.70;;;2.30;;
21416;SDS011;10869;52.238;10.716;2023-05-19T06:46:48;10.40;;;2.27;;
21416;SDS011;10869;52.238;10.716;2023-05-19T06:49:14;8.60;;;2.83;;
21416;SDS011;10869;52.238;10.716;2023-05-19T06:51:42;10.40;;;2.27;;
21416;SDS011;10869;52.238;10.716;2023-05-19T06:54:13;11.37;;;2.60;;
21416;SDS011;10869;52.238;10.716;2023-05-19T06:59:20;11.73;;;2.63;;
21416;SDS011;10869;52.238;10.716;2023-05-19T07:53:35;7.50;;;1.80;;
21416;SDS011;10869;52.238;10.716;2023-05-19T08:41:09;9.10;;;2.00;;
21416;SDS011;10869;52.238;10.716;2023-05-19T08:43:41;6.43;;;1.83;;
21416;SDS011;10869;52.238;10.716;2023-05-19T08:49:34;8.20;;;2.07;;
21416;SDS011;10869;52.238;10.716;2023-05-19T08:55:02;6.20;;;2.10;;
21416;SDS011;10869;52.238;10.716;2023-05-19T08:57:58;14.30;;;2.43;;
21416;SDS011;10869;52.238;10.716;2023-05-19T09:00:25;7.63;;;2.23;;
21416;SDS011;10869;52.238;10.716;2023-05-19T09:02:52;6.80;;;2.00;;
21416;SDS011;10869;52.238;10.716;2023-05-19T09:05:18;5.70;;;1.90;;
21416;SDS011;10869;52.238;10.716;2023-05-19T09:07:44;8.20;;;2.37;;
21416;SDS011;10869;52.238;10.716;2023-05-19T09:10:12;5.90;;;1.77;;
21416;SDS011;10869;52.238;10.716;2023-05-19T09:12:40;7.47;;;2.30;;
21416;SDS011;10869;52.238;10.716;2023-05-19T09:15:11;12.60;;;2.67;;
21416;SDS011;10869;52.238;10.716;2023-05-19T09:20:15;8.17;;;1.63;;
21416;SDS011;10869;52.238;10.716;2023-05-19T09:26:03;6.87;;;1.93;;
21416;SDS011;10869;52.238;10.716;2023-05-19T09:28:33;6.90;;;1.80;;
21416;SDS011;10869;52.238;10.716;2023-05-19T13:21:33;3.30;;;1.30;;
21416;SDS011;10869;52.238;10.716;2023-05-19T13:53:22;5.67;;;1.30;;
21416;SDS011;10869;52.238;10.716;2023-05-19T13:56:14;3.10;;;1.27;;
21416;SDS011;10869;52.238;10.716;2023-05-19T14:01:22;2.37;;;1.20;;
21416;SDS011;10869;52.238;10.716;2023-05-19T14:19:33;6.23;;;1.40;;
21416;SDS011;10869;52.238;10.716;2023-05-19T14:22:04;5.20;;;1.40;;
21416;SDS011;10869;52.238;10.716;2023-05-19T14:24:31;6.93;;;1.87;;
21416;SDS011;10869;52.238;10.716;2023-05-19T14:27:06;3.47;;;1.20;;
21416;SDS011;10869;52.238;10.716;2023-05-19T14:29:38;7.10;;;1.30;;
21416;SDS011;10869;52.238;10.716;2023-05-19T14:32:42;8.30;;;1.37;;
21416;SDS011;10869;52.238;10.716;2023-05-19T14:35:08;5.03;;;1.73;;
21416;SDS011;10869;52.238;10.716;2023-05-19T14:37:36;4.30;;;1.60;;
21416;SDS011;10869;52.238;10.716;2023-05-19T14:45:19;5.83;;;1.63;;
21416;SDS011;10869;52.238;10.716;2023-05-19T15:06:25;8.10;;;1.83;;
21416;SDS011;10869;52.238;10.716;2023-05-19T15:12:16;3.37;;;1.40;;
21416;SDS011;10869;52.238;10.716;2023-05-19T15:14:42;2.87;;;1.20;;
21416;SDS011;10869;52.238;10.716;2023-05-19T15:17:08;5.53;;;1.47;;
21416;SDS011;10869;52.238;10.716;2023-05-19T15:22:56;7.53;;;1.47;;
21416;SDS011;10869;52.238;10.716;2023-05-19T15:25:22;5.53;;;1.80;;
21416;SDS011;10869;52.238;10.716;2023-05-19T16:33:18;5.03;;;1.40;;
21416;SDS011;10869;52.238;10.716;2023-05-19T17:23:06;3.50;;;1.33;;
21416;SDS011;10869;52.238;10.716;2023-05-19T17:25:32;3.30;;;1.23;;
21416;SDS011;10869;52.238;10.716;2023-05-19T17:31:22;5.40;;;1.40;;
21416;SDS011;10869;52.238;10.716;2023-05-19T17:33:52;3.83;;;1.20;;
21416;SDS011;10869;52.238;10.716;2023-05-19T17:36:18;3.83;;;1.23;;
21416;SDS011;10869;52.238;10.716;2023-05-19T17:38:44;5.20;;;1.67;;
21416;SDS011;10869;52.238;10.716;2023-05-19T17:41:10;2.50;;;1.30;;
21416;SDS011;10869;52.238;10.716;2023-05-19T17:43:40;2.67;;;1.30;;
21416;SDS011;10869;52.238;10.716;2023-05-19T17:49:28;3.17;;;1.40;;
21416;SDS011;10869;52.238;10.716;2023-05-19T17:51:54;2.63;;;1.30;;
21416;SDS011;10869;52.238;10.716;2023-05-19T17:54:20;4.77;;;1.10;;
21416;SDS011;10869;52.238;10.716;2023-05-19T17:56:46;2.67;;;1.33;;
21416;SDS011;10869;52.238;10.716;2023-05-19T17:59:18;5.50;;;1.57;;
21416;SDS011;10869;52.238;10.716;2023-05-19T18:01:44;3.87;;;1.53;;
21416;SDS011;10869;52.238;10.716;2023-05-19T18:04:10;3.93;;;1.70;;
21416;SDS011;10869;52.238;10.716;2023-05-19T18:06:36;3.63;;;1.37;;
21416;SDS011;10869;52.238;10.716;2023-05-19T18:09:03;4.73;;;1.30;;
21416;SDS011;10869;52.238;10.716;2023-05-19T18:14:54;3.73;;;1.60;;
21416;SDS011;10869;52.238;10.716;2023-05-19T18:20:42;3.80;;;1.70;;
21416;SDS011;10869;52.238;10.716;2023-05-19T18:26:31;6.13;;;1.57;;
21416;SDS011;10869;52.238;10.716;2023-05-19T18:28:57;3.10;;;1.30;;
21416;SDS011;10869;52.238;10.716;2023-05-19T18:31:26;6.70;;;1.67;;
21416;SDS011;10869;52.238;10.716;2023-05-19T18:33:53;2.93;;;1.33;;
21416;SDS011;10869;52.238;10.716;2023-05-19T18:36:18;5.47;;;1.57;;
21416;SDS011;10869;52.238;10.716;2023-05-19T18:42:13;5.77;;;1.50;;
21416;SDS011;10869;52.238;10.716;2023-05-19T18:50:52;5.23;;;1.73;;
21416;SDS011;10869;52.238;10.716;2023-05-19T18:53:19;5.00;;;1.93;;
21416;SDS011;10869;52.238;10.716;2023-05-19T18:59:31;3.97;;;1.67;;
21416;SDS011;10869;52.238;10.716;2023-05-19T19:05:20;6.73;;;2.00;;
21416;SDS011;10869;52.238;10.716;2023-05-19T19:07:46;6.50;;;2.17;;
21416;SDS011;10869;52.238;10.716;2023-05-19T19:10:13;5.17;;;1.80;;
21416;SDS011;10869;52.238;10.716;2023-05-19T19:12:39;7.87;;;1.80;;
21416;SDS011;10869;52.238;10.716;2023-05-19T19:15:05;4.73;;;1.87;;
21416;SDS011;10869;52.238;10.716;2023-05-19T19:20:53;4.33;;;1.90;;
21416;SDS011;10869;52.238;10.716;2023-05-19T19:26:43;5.07;;;2.07;;
21416;SDS011;10869;52.238;10.716;2023-05-19T19:29:08;3.87;;;1.80;;
21416;SDS011;10869;52.238;10.716;2023-05-19T19:31:34;6.23;;;1.70;;
21416;SDS011;10869;52.238;10.716;2023-05-19T19:34:00;9.73;;;2.00;;
21416;SDS011;10869;52.238;10.716;2023-05-19T19:36:31;6.37;;;1.80;;
21416;SDS011;10869;52.238;10.716;2023-05-19T19:38:57;6.80;;;1.90;;
21416;SDS011;10869;52.238;10.716;2023-05-19T19:41:23;3.67;;;1.87;;
21416;SDS011;10869;52.238;10.716;2023-05-19T19:43:50;7.93;;;1.77;;
21416;SDS011;10869;52.238;10.716;2023-05-19T19:49:38;7.00;;;1.60;;
21416;SDS011;10869;52.238;10.716;2023-05-19T19:55:26;5.47;;;1.70;;
21416;SDS011;10869;52.238;10.716;2023-05-19T20:01:16;10.63;;;2.20;;
21416;SDS011;10869;52.238;10.716;2023-05-19T20:03:44;12.40;;;2.00;;
21416;SDS011;10869;52.238;10.716;2023-05-19T20:06:10;6.77;;;1.60;;
21416;SDS011;10869;52.238;10.716;2023-05-19T20:08:36;6.60;;;2.17;;
21416;SDS011;10869;52.238;10.716;2023-05-19T20:11:01;6.37;;;2.10;;
21416;SDS011;10869;52.238;10.716;2023-05-19T20:13:27;7.67;;;2.10;;
21416;SDS011;10869;52.238;10.716;2023-05-19T20:15:53;7.07;;;2.30;;
21416;SDS011;10869;52.238;10.716;2023-05-19T20:21:40;6.77;;;1.90;;
21416;SDS011;10869;52.238;10.716;2023-05-19T20:24:06;6.47;;;1.87;;
21416;SDS011;10869;52.238;10.716;2023-05-19T20:26:32;3.97;;;1.90;;
21416;SDS011;10869;52.238;10.716;2023-05-19T20:28:58;4.93;;;2.27;;
21416;SDS011;10869;52.238;10.716;2023-05-19T20:31:24;4.87;;;1.97;;
21416;SDS011;10869;52.238;10.716;2023-05-19T20:33:52;4.90;;;2.00;;
21416;SDS011;10869;52.238;10.716;2023-05-19T20:36:18;6.37;;;1.90;;
21416;SDS011;10869;52.238;10.716;2023-05-19T20:38:43;4.40;;;2.10;;
21416;SDS011;10869;52.238;10.716;2023-05-19T20:41:11;7.67;;;2.20;;
21416;SDS011;10869;52.238;10.716;2023-05-19T20:43:37;5.33;;;2.33;;
21416;SDS011;10869;52.238;10.716;2023-05-19T20:46:03;6.17;;;1.97;;
21416;SDS011;10869;52.238;10.716;2023-05-19T20:48:29;8.57;;;2.30;;
21416;SDS011;10869;52.238;10.716;2023-05-19T20:50:55;8.23;;;2.10;;
21416;SDS011;10869;52.238;10.716;2023-05-19T20:53:21;6.37;;;2.13;;
21416;SDS011;10869;52.238;10.716;2023-05-19T20:55:48;6.13;;;2.20;;
21416;SDS011;10869;52.238;10.716;2023-05-19T20:58:14;6.23;;;2.27;;
21416;SDS011;10869;52.238;10.716;2023-05-19T21:00:39;5.63;;;2.20;;
21416;SDS011;10869;52.238;10.716;2023-05-19T21:03:05;9.47;;;2.40;;
21416;SDS011;10869;52.238;10.716;2023-05-19T21:05:31;4.07;;;1.97;;
21416;SDS011;10869;52.238;10.716;2023-05-19T21:07:57;4.23;;;2.07;;
21416;SDS011;10869;52.238;10.716;2023-05-19T21:10:22;6.33;;;2.23;;
21416;SDS011;10869;52.238;10.716;2023-05-19T21:12:48;5.23;;;2.40;;
21416;SDS011;10869;52.238;10.716;2023-05-19T21:15:14;5.97;;;1.90;;
21416;SDS011;10869;52.238;10.716;2023-05-19T21:17:40;7.07;;;2.10;;
21416;SDS011;10869;52.238;10.716;2023-05-19T21:20:05;5.37;;;2.13;;
21416;SDS011;10869;52.238;10.716;2023-05-19T21:22:32;7.00;;;2.23;;
21416;SDS011;10869;52.238;10.716;2023-05-19T21:24:59;4.00;;;2.10;;
21416;SDS011;10869;52.238;10.716;2023-05-19T21:27:25;5.90;;;2.40;;
21416;SDS011;10869;52.238;10.716;2023-05-19T21:29:51;5.17;;;2.37;;
21416;SDS011;10869;52.238;10.716;2023-05-19T21:35:40;6.23;;;2.57;;
21416;SDS011;10869;52.238;10.716;2023-05-19T21:38:05;7.07;;;2.43;;
21416;SDS011;10869;52.238;10.716;2023-05-19T21:40:31;7.93;;;2.47;;
21416;SDS011;10869;52.238;10.716;2023-05-19T21:42:57;7.40;;;1.97;;
21416;SDS011;10869;52.238;10.716;2023-05-19T21:45:23;5.37;;;2.20;;
21416;SDS011;10869;52.238;10.716;2023-05-19T21:47:48;8.97;;;2.13;;
21416;SDS011;10869;52.238;10.716;2023-05-19T21:50:14;5.73;;;2.07;;
21416;SDS011;10869;52.238;10.716;2023-05-19T21:52:41;6.40;;;2.30;;
21416;SDS011;10869;52.238;10.716;2023-05-19T21:55:07;4.33;;;1.87;;
21416;SDS011;10869;52.238;10.716;2023-05-19T21:57:33;5.23;;;2.13;;
21416;SDS011;10869;52.238;10.716;2023-05-19T21:59:59;7.23;;;1.80;;
21416;SDS011;10869;52.238;10.716;2023-05-19T22:02:25;5.37;;;2.40;;
21416;SDS011;10869;52.238;10.716;2023-05-19T22:04:51;4.07;;;1.83;;
21416;SDS011;10869;52.238;10.716;2023-05-19T22:07:16;5.80;;;2.10;;
21416;SDS011;10869;52.238;10.716;2023-05-19T22:09:42;5.00;;;2.03;;
21416;SDS011;10869;52.238;10.716;2023-05-19T22:12:09;7.80;;;2.13;;
21416;SDS011;10869;52.238;10.716;2023-05-19T22:14:34;13.13;;;2.30;;
21416;SDS011;10869;52.238;10.716;2023-05-19T22:17:00;4.37;;;2.13;;
21416;SDS011;10869;52.238;10.716;2023-05-19T22:19:26;5.50;;;2.10;;
21416;SDS011;10869;52.238;10.716;2023-05-19T22:21:52;4.27;;;1.90;;
21416;SDS011;10869;52.238;10.716;2023-05-19T22:24:17;7.77;;;2.90;;
21416;SDS011;10869;52.238;10.716;2023-05-19T22:26:43;18.20;;;3.07;;
21416;SDS011;10869;52.238;10.716;2023-05-19T22:29:10;6.20;;;2.10;;
21416;SDS011;10869;52.238;10.716;2023-05-19T22:31:39;5.67;;;2.07;;
21416;SDS011;10869;52.238;10.716;2023-05-19T22:34:05;8.27;;;2.10;;
21416;SDS011;10869;52.238;10.716;2023-05-19T22:36:30;4.37;;;1.83;;
21416;SDS011;10869;52.238;10.716;2023-05-19T22:38:56;7.40;;;1.80;;
21416;SDS011;10869;52.238;10.716;2023-05-19T22:41:22;6.90;;;1.97;;
21416;SDS011;10869;52.238;10.716;2023-05-19T22:43:47;5.77;;;2.07;;
21416;SDS011;10869;52.238;10.716;2023-05-19T22:46:13;4.77;;;2.33;;
21416;SDS011;10869;52.238;10.716;2023-05-19T22:48:39;4.33;;;1.90;;
21416;SDS011;10869;52.238;10.716;2023-05-19T22:51:05;7.27;;;2.53;;
21416;SDS011;10869;52.238;10.716;2023-05-19T22:53:30;6.30;;;2.40;;
21416;SDS011;10869;52.238;10.716;2023-05-19T22:55:56;7.37;;;2.53;;
21416;SDS011;10869;52.238;10.716;2023-05-19T22:58:22;5.23;;;2.20;;
